createdAt,value
2018-12-06T00:00:55.444Z,2.52
2018-12-06T00:01:55.459Z,2.56
2018-12-06T00:02:55.426Z,2.53
2018-12-06T00:03:55.437Z,2.60
2018-12-06T00:04:55.403Z,2.53
2018-12-06T00:05:55.428Z,2.52
2018-12-06T00:06:55.437Z,2.54
2018-12-06T00:07:55.380Z,2.54
2018-12-06T00:08:55.363Z,2.52
2018-12-06T00:09:55.368Z,2.53
2018-12-06T00:10:55.352Z,2.54
2018-12-06T00:11:55.331Z,2.53
2018-12-06T00:12:55.323Z,2.56
2018-12-06T00:13:55.321Z,2.53
2018-12-06T00:14:55.329Z,2.53
2018-12-06T00:15:55.289Z,2.53
2018-12-06T00:16:55.280Z,2.52
2018-12-06T00:17:55.271Z,2.53
2018-12-06T00:18:55.268Z,2.59
2018-12-06T00:19:55.282Z,2.54
2018-12-06T00:20:55.238Z,2.54
2018-12-06T00:21:55.243Z,2.59
2018-12-06T00:22:55.216Z,2.54
2018-12-06T00:23:55.203Z,2.54
2018-12-06T00:24:55.210Z,2.52
2018-12-06T00:25:55.185Z,2.57
2018-12-06T00:26:55.173Z,2.56
2018-12-06T00:27:55.160Z,2.53
2018-12-06T00:29:03.014Z,2.56
2018-12-06T00:29:55.173Z,2.52
2018-12-06T00:30:55.138Z,2.49
2018-12-06T00:31:55.118Z,2.53
2018-12-06T00:32:55.114Z,2.48
2018-12-06T00:33:55.101Z,2.57
2018-12-06T00:34:55.115Z,2.43
2018-12-06T00:35:55.082Z,2.49
2018-12-06T00:36:55.077Z,2.49
2018-12-06T00:37:55.063Z,2.54
2018-12-06T00:38:55.048Z,2.57
2018-12-06T00:39:55.053Z,2.57
2018-12-06T00:40:55.022Z,2.54
2018-12-06T00:41:55.015Z,2.57
2018-12-06T00:42:55.010Z,2.60
2018-12-06T00:43:55.017Z,2.57
2018-12-06T00:44:55.002Z,2.52
2018-12-06T00:45:54.976Z,2.39
2018-12-06T00:46:54.964Z,2.48
2018-12-06T00:47:54.958Z,2.49
2018-12-06T00:48:54.956Z,2.43
2018-12-06T00:49:54.960Z,2.52
2018-12-06T00:50:54.930Z,2.49
2018-12-06T00:51:54.921Z,2.46
2018-12-06T00:52:54.905Z,2.53
2018-12-06T00:53:54.896Z,2.53
2018-12-06T00:54:54.918Z,2.45
2018-12-06T00:55:54.868Z,2.54
2018-12-06T00:56:54.854Z,2.56
2018-12-06T00:57:54.850Z,2.54
2018-12-06T00:58:54.837Z,2.56
2018-12-06T00:59:54.836Z,2.49
2018-12-06T01:00:54.846Z,2.46
2018-12-06T01:01:54.813Z,2.49
2018-12-06T01:02:54.801Z,2.43
2018-12-06T01:03:54.794Z,2.36
2018-12-06T01:04:54.780Z,2.36
2018-12-06T01:05:54.784Z,2.48
2018-12-06T01:06:54.758Z,2.60
2018-12-06T01:07:54.749Z,2.53
2018-12-06T01:08:54.731Z,2.53
2018-12-06T01:09:54.728Z,2.53
2018-12-06T01:10:54.738Z,2.49
2018-12-06T01:11:54.706Z,2.46
2018-12-06T01:12:54.687Z,2.54
2018-12-06T01:13:54.680Z,2.46
2018-12-06T01:14:54.665Z,2.53
2018-12-06T01:15:54.691Z,2.43
2018-12-06T01:16:54.650Z,2.53
2018-12-06T01:17:54.652Z,2.36
2018-12-06T01:18:54.624Z,2.53
2018-12-06T01:19:54.630Z,2.41
2018-12-06T01:20:54.645Z,2.53
2018-12-06T01:21:54.608Z,2.52
2018-12-06T01:22:54.594Z,2.38
2018-12-06T01:23:54.582Z,2.54
2018-12-06T01:24:54.568Z,2.41
2018-12-06T01:25:54.572Z,2.54
2018-12-06T01:26:54.546Z,2.52
2018-12-06T01:27:54.556Z,2.54
2018-12-06T01:28:54.534Z,2.49
2018-12-06T01:29:54.522Z,2.52
2018-12-06T01:30:54.573Z,2.49
2018-12-06T01:31:54.492Z,2.41
2018-12-06T01:32:54.492Z,2.48
2018-12-06T01:33:54.475Z,2.52
2018-12-06T01:34:54.462Z,2.49
2018-12-06T01:35:54.476Z,2.53
2018-12-06T01:36:54.440Z,2.49
2018-12-06T01:37:54.426Z,2.49
2018-12-06T01:38:54.444Z,2.48
2018-12-06T01:39:54.418Z,2.52
2018-12-06T01:40:54.402Z,2.54
2018-12-06T01:41:54.406Z,2.57
2018-12-06T01:42:54.380Z,2.52
2018-12-06T01:43:54.386Z,2.53
2018-12-06T01:44:54.366Z,2.53
2018-12-06T01:45:54.370Z,2.54
2018-12-06T01:46:54.344Z,2.56
2018-12-06T01:47:54.332Z,2.57
2018-12-06T01:48:54.322Z,2.56
2018-12-06T01:49:54.306Z,2.60
2018-12-06T01:50:54.324Z,2.56
2018-12-06T01:51:54.290Z,2.54
2018-12-06T01:52:54.290Z,2.56
2018-12-06T01:53:54.263Z,2.59
2018-12-06T01:54:54.250Z,2.54
2018-12-06T01:55:54.303Z,2.53
2018-12-06T01:56:54.225Z,2.54
2018-12-06T01:57:54.228Z,2.53
2018-12-06T01:58:54.220Z,2.54
2018-12-06T01:59:54.211Z,2.72
2018-12-06T02:00:54.205Z,2.57
2018-12-06T02:01:54.180Z,2.61
2018-12-06T02:02:54.171Z,2.69
2018-12-06T02:03:54.168Z,2.69
2018-12-06T02:04:54.170Z,2.67
2018-12-06T02:05:54.169Z,2.71
2018-12-06T02:06:54.121Z,2.72
2018-12-06T02:07:54.114Z,2.64
2018-12-06T02:08:54.112Z,2.66
2018-12-06T02:09:54.105Z,2.72
2018-12-06T02:10:54.109Z,2.67
2018-12-06T02:11:54.072Z,2.74
2018-12-06T02:12:54.063Z,2.74
2018-12-06T02:13:54.071Z,2.72
2018-12-06T02:14:54.051Z,2.74
2018-12-06T02:15:54.036Z,2.72
2018-12-06T02:16:54.047Z,2.79
2018-12-06T02:17:54.010Z,2.77
2018-12-06T02:18:54.006Z,2.79
2018-12-06T02:19:53.995Z,2.82
2018-12-06T02:20:53.985Z,2.89
2018-12-06T02:21:53.986Z,2.85
2018-12-06T02:22:54.007Z,2.85
2018-12-06T02:23:53.953Z,2.87
2018-12-06T02:24:53.941Z,2.89
2018-12-06T02:25:53.932Z,2.84
2018-12-06T02:26:53.953Z,2.79
2018-12-06T02:27:53.912Z,2.85
2018-12-06T02:28:53.895Z,2.82
2018-12-06T02:29:53.889Z,2.82
2018-12-06T02:30:53.872Z,2.87
2018-12-06T02:31:53.917Z,2.87
2018-12-06T02:32:53.862Z,2.84
2018-12-06T02:33:53.841Z,2.81
2018-12-06T02:34:53.834Z,2.85
2018-12-06T02:35:53.819Z,2.90
2018-12-06T02:36:53.837Z,2.84
2018-12-06T02:37:53.817Z,2.89
2018-12-06T02:38:53.787Z,2.95
2018-12-06T02:39:53.781Z,2.90
2018-12-06T02:40:53.773Z,2.90
2018-12-06T02:41:53.771Z,2.85
2018-12-06T02:42:53.753Z,2.85
2018-12-06T02:43:53.734Z,2.95
2018-12-06T02:44:53.731Z,2.92
2018-12-06T02:45:53.715Z,2.95
2018-12-06T02:46:53.723Z,2.92
2018-12-06T02:47:53.693Z,2.92
2018-12-06T02:48:53.691Z,2.92
2018-12-06T02:49:53.674Z,2.92
2018-12-06T02:50:53.679Z,2.89
2018-12-06T02:51:53.651Z,2.95
2018-12-06T02:52:53.679Z,2.97
2018-12-06T02:53:53.628Z,2.92
2018-12-06T02:54:53.621Z,2.89
2018-12-06T02:55:53.633Z,2.93
2018-12-06T02:56:53.601Z,2.87
2018-12-06T02:57:53.616Z,2.93
2018-12-06T02:58:53.581Z,2.89
2018-12-06T02:59:53.573Z,2.93
2018-12-06T03:00:53.553Z,2.85
2018-12-06T03:01:53.570Z,2.92
2018-12-06T03:02:53.572Z,2.92
2018-12-06T03:03:53.525Z,2.85
2018-12-06T03:04:53.520Z,2.85
2018-12-06T03:05:53.502Z,2.89
2018-12-06T03:06:53.500Z,2.90
2018-12-06T03:07:53.500Z,2.92
2018-12-06T03:08:53.488Z,2.93
2018-12-06T03:09:53.462Z,2.97
2018-12-06T03:10:53.457Z,2.93
2018-12-06T03:11:53.458Z,2.90
2018-12-06T03:12:53.452Z,2.90
2018-12-06T03:13:53.422Z,2.89
2018-12-06T03:14:53.414Z,2.95
2018-12-06T03:15:53.467Z,2.92
2018-12-06T03:16:53.394Z,2.87
2018-12-06T03:17:53.405Z,2.89
2018-12-06T03:18:53.368Z,2.89
2018-12-06T03:19:53.362Z,2.92
2018-12-06T03:20:53.346Z,2.92
2018-12-06T03:21:53.337Z,2.89
2018-12-06T03:22:53.346Z,2.90
2018-12-06T03:23:53.330Z,2.89
2018-12-06T03:24:53.310Z,2.93
2018-12-06T03:25:53.306Z,2.89
2018-12-06T03:26:53.310Z,2.92
2018-12-06T03:27:53.299Z,2.95
2018-12-06T03:28:53.264Z,2.92
2018-12-06T03:29:53.260Z,2.97
2018-12-06T03:30:53.256Z,2.95
2018-12-06T03:31:53.241Z,2.93
2018-12-06T03:32:53.248Z,2.97
2018-12-06T03:33:53.220Z,2.93
2018-12-06T03:34:53.201Z,2.90
2018-12-06T03:35:53.215Z,3.02
2018-12-06T03:36:53.186Z,3.05
2018-12-06T03:37:53.193Z,3.03
2018-12-06T03:38:53.161Z,2.99
2018-12-06T03:39:53.163Z,3.06
2018-12-06T03:40:53.138Z,2.99
2018-12-06T03:41:53.127Z,3.02
2018-12-06T03:42:53.132Z,3.03
2018-12-06T03:43:53.989Z,2.95
2018-12-06T03:44:53.125Z,3.05
2018-12-06T03:45:53.090Z,3.02
2018-12-06T03:46:53.080Z,3.06
2018-12-06T03:47:53.089Z,3.08
2018-12-06T03:48:53.057Z,3.03
2018-12-06T03:49:53.049Z,3.02
2018-12-06T03:50:53.042Z,3.14
2018-12-06T03:51:53.028Z,3.03
2018-12-06T03:52:53.052Z,3.05
2018-12-06T03:53:53.021Z,3.15
2018-12-06T03:54:53.001Z,3.06
2018-12-06T03:55:52.981Z,3.02
2018-12-06T03:56:52.982Z,3.10
2018-12-06T03:57:52.961Z,3.05
2018-12-06T03:58:52.982Z,3.11
2018-12-06T03:59:52.937Z,3.15
2018-12-06T04:00:52.936Z,3.11
2018-12-06T04:01:52.919Z,3.13
2018-12-06T04:02:52.911Z,3.10
2018-12-06T04:03:52.923Z,3.11
2018-12-06T04:04:52.884Z,3.14
2018-12-06T04:05:52.877Z,3.11
2018-12-06T04:06:52.871Z,3.14
2018-12-06T04:07:52.857Z,3.15
2018-12-06T04:08:52.861Z,3.11
2018-12-06T04:09:52.840Z,3.11
2018-12-06T04:10:52.826Z,3.13
2018-12-06T04:11:52.818Z,3.13
2018-12-06T04:12:52.811Z,3.10
2018-12-06T04:13:52.815Z,3.15
2018-12-06T04:14:52.792Z,3.11
2018-12-06T04:15:52.778Z,3.17
2018-12-06T04:16:52.763Z,3.13
2018-12-06T04:17:52.751Z,3.08
2018-12-06T04:18:52.757Z,3.08
2018-12-06T04:19:52.734Z,3.14
2018-12-06T04:20:52.774Z,3.10
2018-12-06T04:21:52.712Z,3.06
2018-12-06T04:22:52.702Z,3.18
2018-12-06T04:23:52.710Z,3.03
2018-12-06T04:24:52.678Z,3.18
2018-12-06T04:25:52.667Z,3.15
2018-12-06T04:26:52.661Z,3.14
2018-12-06T04:27:52.658Z,3.17
2018-12-06T04:28:52.662Z,3.23
2018-12-06T04:29:52.637Z,3.15
2018-12-06T04:30:52.611Z,3.15
2018-12-06T04:31:52.607Z,3.23
2018-12-06T04:32:52.596Z,3.14
2018-12-06T04:33:52.602Z,3.18
2018-12-06T04:34:52.577Z,3.29
2018-12-06T04:35:52.571Z,3.21
2018-12-06T04:36:52.556Z,3.18
2018-12-06T04:37:52.537Z,3.28
2018-12-06T04:38:52.554Z,3.32
2018-12-06T04:39:52.573Z,3.32
2018-12-06T04:40:52.515Z,3.26
2018-12-06T04:41:52.507Z,3.29
2018-12-06T04:42:52.485Z,3.32
2018-12-06T04:43:52.494Z,3.39
2018-12-06T04:44:52.464Z,3.35
2018-12-06T04:45:52.460Z,3.32
2018-12-06T04:46:52.450Z,3.36
2018-12-06T04:47:52.490Z,3.39
2018-12-06T04:48:52.445Z,3.33
2018-12-06T04:49:52.412Z,3.29
2018-12-06T04:50:52.405Z,3.35
2018-12-06T04:51:52.394Z,3.33
2018-12-06T04:52:52.398Z,3.32
2018-12-06T04:53:52.404Z,3.42
2018-12-06T04:54:52.370Z,3.45
2018-12-06T04:55:52.356Z,3.28
2018-12-06T04:56:52.347Z,3.29
2018-12-06T04:57:52.330Z,3.40
2018-12-06T04:58:52.325Z,3.24
2018-12-06T04:59:52.336Z,3.42
2018-12-06T05:00:52.300Z,3.35
2018-12-06T05:01:52.288Z,3.40
2018-12-06T05:02:52.276Z,3.47
2018-12-06T05:03:52.270Z,3.45
2018-12-06T05:04:52.276Z,3.42
2018-12-06T05:05:52.247Z,3.48
2018-12-06T05:06:52.249Z,3.47
2018-12-06T05:07:52.225Z,3.48
2018-12-06T05:08:52.210Z,3.45
2018-12-06T05:09:52.224Z,3.45
2018-12-06T05:10:52.197Z,3.50
2018-12-06T05:11:52.181Z,3.50
2018-12-06T05:12:52.175Z,3.54
2018-12-06T05:13:52.162Z,3.51
2018-12-06T05:14:52.193Z,3.48
2018-12-06T05:15:52.138Z,3.50
2018-12-06T05:16:52.128Z,3.50
2018-12-06T05:17:52.118Z,3.51
2018-12-06T05:18:52.116Z,3.57
2018-12-06T05:19:52.132Z,3.54
2018-12-06T05:20:52.090Z,3.60
2018-12-06T05:21:52.074Z,3.57
2018-12-06T05:22:52.065Z,3.58
2018-12-06T05:23:52.055Z,3.57
2018-12-06T05:24:52.063Z,3.54
2018-12-06T05:25:52.044Z,3.66
2018-12-06T05:26:52.023Z,3.55
2018-12-06T05:27:52.015Z,3.66
2018-12-06T05:28:52.002Z,3.62
2018-12-06T05:29:52.008Z,3.66
2018-12-06T05:30:51.982Z,3.66
2018-12-06T05:31:51.968Z,3.57
2018-12-06T05:32:51.964Z,3.60
2018-12-06T05:33:52.047Z,3.62
2018-12-06T05:34:51.981Z,3.61
2018-12-06T05:35:51.931Z,3.70
2018-12-06T05:36:51.913Z,3.65
2018-12-06T05:37:51.919Z,3.75
2018-12-06T05:38:51.896Z,3.62
2018-12-06T05:39:51.925Z,3.65
2018-12-06T05:40:51.875Z,3.62
2018-12-06T05:41:51.862Z,3.72
2018-12-06T05:42:51.851Z,3.62
2018-12-06T05:43:51.840Z,3.78
2018-12-06T05:44:51.839Z,3.62
2018-12-06T05:45:51.839Z,3.62
2018-12-06T05:46:51.811Z,3.62
2018-12-06T05:47:51.797Z,3.66
2018-12-06T05:48:51.814Z,3.73
2018-12-06T05:49:51.800Z,3.62
2018-12-06T05:50:51.783Z,3.78
2018-12-06T05:51:51.754Z,3.66
2018-12-06T05:52:51.745Z,3.73
2018-12-06T05:53:51.734Z,3.69
2018-12-06T05:54:51.721Z,3.73
2018-12-06T05:55:51.746Z,3.80
2018-12-06T05:56:51.710Z,3.73
2018-12-06T05:57:51.700Z,3.76
2018-12-06T05:58:51.679Z,3.72
2018-12-06T05:59:51.678Z,3.79
2018-12-06T06:00:51.679Z,3.86
2018-12-06T06:01:51.656Z,3.84
2018-12-06T06:02:51.640Z,3.80
2018-12-06T06:03:51.625Z,3.78
2018-12-06T06:04:51.628Z,3.76
2018-12-06T06:05:51.633Z,3.84
2018-12-06T06:06:51.599Z,3.83
2018-12-06T06:07:51.582Z,3.80
2018-12-06T06:08:51.578Z,3.83
2018-12-06T06:09:51.562Z,3.84
2018-12-06T06:10:51.576Z,3.84
2018-12-06T06:11:51.545Z,3.86
2018-12-06T06:12:51.529Z,3.88
2018-12-06T06:13:51.536Z,3.90
2018-12-06T06:14:51.512Z,3.90
2018-12-06T06:15:51.518Z,3.93
2018-12-06T06:16:51.488Z,3.93
2018-12-06T06:17:51.493Z,4.00
2018-12-06T06:18:51.546Z,4.04
2018-12-06T06:19:51.473Z,3.91
2018-12-06T06:20:51.479Z,4.00
2018-12-06T06:21:51.443Z,3.93
2018-12-06T06:22:51.428Z,4.00
2018-12-06T06:23:51.413Z,3.97
2018-12-06T06:24:51.406Z,4.02
2018-12-06T06:25:51.440Z,4.06
2018-12-06T06:26:51.387Z,4.06
2018-12-06T06:27:51.373Z,4.02
2018-12-06T06:28:51.362Z,4.04
2018-12-06T06:29:51.442Z,3.91
2018-12-06T06:30:51.365Z,4.04
2018-12-06T06:31:51.355Z,4.00
2018-12-06T06:32:51.318Z,4.02
2018-12-06T06:33:51.311Z,4.06
2018-12-06T06:34:51.312Z,4.06
2018-12-06T06:35:51.301Z,3.94
2018-12-06T06:36:51.290Z,3.94
2018-12-06T06:37:51.473Z,3.94
2018-12-06T06:38:51.255Z,4.08
2018-12-06T06:39:51.243Z,4.09
2018-12-06T06:40:51.303Z,4.04
2018-12-06T06:41:51.648Z,4.09
2018-12-06T06:42:51.219Z,4.08
2018-12-06T06:43:51.199Z,4.05
2018-12-06T06:44:51.191Z,4.09
2018-12-06T06:45:53.200Z,4.08
2018-12-06T06:46:51.196Z,4.14
2018-12-06T06:47:52.008Z,4.11
2018-12-06T06:48:54.049Z,4.12
2018-12-06T06:49:51.147Z,4.11
2018-12-06T06:50:51.129Z,4.12
2018-12-06T06:51:51.138Z,4.12
2018-12-06T06:52:51.711Z,4.15
2018-12-06T06:53:52.047Z,4.18
2018-12-06T06:54:51.090Z,4.18
2018-12-06T06:55:51.078Z,4.15
2018-12-06T06:56:51.088Z,4.18
2018-12-06T06:57:51.129Z,4.18
2018-12-06T06:58:51.043Z,4.15
2018-12-06T06:59:51.038Z,4.16
2018-12-06T07:00:51.022Z,4.08
2018-12-06T07:01:51.026Z,4.15
2018-12-06T07:02:51.004Z,4.20
2018-12-06T07:03:50.998Z,4.24
2018-12-06T07:04:50.980Z,4.08
2018-12-06T07:05:50.972Z,4.20
2018-12-06T07:06:50.989Z,4.16
2018-12-06T07:07:50.966Z,4.14
2018-12-06T07:08:50.964Z,4.29
2018-12-06T07:09:51.586Z,4.08
2018-12-06T07:10:50.925Z,4.09
2018-12-06T07:11:50.932Z,4.11
2018-12-06T07:12:50.918Z,4.20
2018-12-06T07:13:50.885Z,4.12
2018-12-06T07:14:50.895Z,4.15
2018-12-06T07:15:50.875Z,4.22
2018-12-06T07:16:50.860Z,4.16
2018-12-06T07:17:50.862Z,4.11
2018-12-06T07:18:50.840Z,4.12
2018-12-06T07:19:50.829Z,4.18
2018-12-06T07:20:50.810Z,4.20
2018-12-06T07:21:50.804Z,4.18
2018-12-06T07:22:50.873Z,4.32
2018-12-06T07:23:50.796Z,4.24
2018-12-06T07:24:50.767Z,4.27
2018-12-06T07:25:50.770Z,4.24
2018-12-06T07:26:50.747Z,4.26
2018-12-06T07:27:50.769Z,4.27
2018-12-06T07:28:50.752Z,4.29
2018-12-06T07:29:50.724Z,4.34
2018-12-06T07:30:50.797Z,4.34
2018-12-06T07:31:50.700Z,4.24
2018-12-06T07:32:50.722Z,4.15
2018-12-06T07:33:50.673Z,4.33
2018-12-06T07:34:50.664Z,4.29
2018-12-06T07:35:50.658Z,4.32
2018-12-06T07:36:50.651Z,4.30
2018-12-06T07:37:50.656Z,4.27
2018-12-06T07:38:50.639Z,4.30
2018-12-06T07:39:50.613Z,4.29
2018-12-06T07:40:50.612Z,4.29
2018-12-06T07:41:50.609Z,4.30
2018-12-06T07:42:50.610Z,4.33
2018-12-06T07:43:50.568Z,4.34
2018-12-06T07:44:50.564Z,4.36
2018-12-06T07:45:50.552Z,4.33
2018-12-06T07:46:50.548Z,4.33
2018-12-06T07:47:50.552Z,4.34
2018-12-06T07:48:50.515Z,4.33
2018-12-06T07:49:50.504Z,4.32
2018-12-06T07:50:50.494Z,4.30
2018-12-06T07:51:50.487Z,4.30
2018-12-06T07:52:50.494Z,4.33
2018-12-06T07:53:50.472Z,4.34
2018-12-06T07:54:50.464Z,4.33
2018-12-06T07:55:50.450Z,4.30
2018-12-06T07:56:50.427Z,4.32
2018-12-06T07:57:50.454Z,4.34
2018-12-06T07:58:50.407Z,4.32
2018-12-06T07:59:50.430Z,4.36
2018-12-06T08:00:50.406Z,4.37
2018-12-06T08:01:50.388Z,4.41
2018-12-06T08:02:50.372Z,4.45
2018-12-06T08:03:50.396Z,4.45
2018-12-06T08:04:50.344Z,4.41
2018-12-06T08:05:50.334Z,4.52
2018-12-06T08:06:50.319Z,4.45
2018-12-06T08:07:50.318Z,4.55
2018-12-06T08:08:50.322Z,4.51
2018-12-06T08:09:50.296Z,4.59
2018-12-06T08:10:50.278Z,4.52
2018-12-06T08:11:50.268Z,4.55
2018-12-06T08:12:50.327Z,4.54
2018-12-06T08:13:50.276Z,4.59
2018-12-06T08:14:50.244Z,4.60
2018-12-06T08:15:50.240Z,4.59
2018-12-06T08:16:50.217Z,4.59
2018-12-06T08:17:50.214Z,4.62
2018-12-06T08:18:50.218Z,4.59
2018-12-06T08:19:50.188Z,4.67
2018-12-06T08:20:50.173Z,4.67
2018-12-06T08:21:50.166Z,4.63
2018-12-06T08:22:50.148Z,4.65
2018-12-06T08:23:50.171Z,4.63
2018-12-06T08:24:50.130Z,4.62
2018-12-06T08:25:50.126Z,4.59
2018-12-06T08:26:50.123Z,4.63
2018-12-06T08:27:50.130Z,4.66
2018-12-06T08:28:50.105Z,4.63
2018-12-06T08:29:50.083Z,4.62
2018-12-06T08:30:50.092Z,4.62
2018-12-06T08:31:50.058Z,4.72
2018-12-06T08:32:50.052Z,4.63
2018-12-06T08:33:50.141Z,4.66
2018-12-06T08:34:50.024Z,4.73
2018-12-06T08:35:50.016Z,4.70
2018-12-06T08:36:50.006Z,4.70
2018-12-06T08:37:50.008Z,4.70
2018-12-06T08:38:49.999Z,4.82
2018-12-06T08:39:49.996Z,4.80
2018-12-06T08:40:49.962Z,4.82
2018-12-06T08:41:49.952Z,4.84
2018-12-06T08:42:49.942Z,4.80
2018-12-06T08:43:49.938Z,4.80
2018-12-06T08:44:49.942Z,4.73
2018-12-06T08:45:49.923Z,4.73
2018-12-06T08:46:49.898Z,4.84
2018-12-06T08:47:49.894Z,4.91
2018-12-06T08:48:49.884Z,4.85
2018-12-06T08:49:49.954Z,4.86
2018-12-06T08:50:49.881Z,4.86
2018-12-06T08:51:49.850Z,4.78
2018-12-06T08:52:49.845Z,4.85
2018-12-06T08:53:49.823Z,4.82
2018-12-06T08:54:49.838Z,4.88
2018-12-06T08:55:49.812Z,4.85
2018-12-06T08:56:49.796Z,4.86
2018-12-06T08:57:49.778Z,4.91
2018-12-06T08:58:49.770Z,4.91
2018-12-06T08:59:49.780Z,4.96
2018-12-06T09:00:49.752Z,4.88
2018-12-06T09:01:49.744Z,4.96
2018-12-06T09:02:49.723Z,4.97
2018-12-06T09:03:49.718Z,5.06
2018-12-06T09:04:49.771Z,5.07
2018-12-06T09:05:49.701Z,5.07
2018-12-06T09:06:49.690Z,5.07
2018-12-06T09:07:49.681Z,5.04
2018-12-06T09:08:49.666Z,5.06
2018-12-06T09:09:49.718Z,5.12
2018-12-06T09:10:51.752Z,5.09
2018-12-06T09:11:49.649Z,5.15
2018-12-06T09:12:49.632Z,5.10
2018-12-06T09:13:49.612Z,5.17
2018-12-06T09:14:49.618Z,5.18
2018-12-06T09:15:49.586Z,5.17
2018-12-06T09:16:49.576Z,5.17
2018-12-06T09:17:49.575Z,5.25
2018-12-06T09:18:49.564Z,5.25
2018-12-06T09:19:49.568Z,5.24
2018-12-06T09:20:49.535Z,5.25
2018-12-06T09:21:49.525Z,5.22
2018-12-06T09:22:49.547Z,5.25
2018-12-06T09:23:49.536Z,5.27
2018-12-06T09:24:49.511Z,5.25
2018-12-06T09:25:49.486Z,5.27
2018-12-06T09:26:49.474Z,5.30
2018-12-06T09:27:49.457Z,5.30
2018-12-06T09:28:49.448Z,5.27
2018-12-06T09:29:49.482Z,5.27
2018-12-06T09:30:49.437Z,5.27
2018-12-06T09:31:49.418Z,5.25
2018-12-06T09:32:49.412Z,5.30
2018-12-06T09:33:49.399Z,5.22
2018-12-06T09:34:49.395Z,5.25
2018-12-06T09:35:49.533Z,5.27
2018-12-06T09:36:49.382Z,5.25
2018-12-06T09:37:49.359Z,5.22
2018-12-06T09:38:49.345Z,5.21
2018-12-06T09:39:49.343Z,5.25
2018-12-06T09:40:49.342Z,5.25
2018-12-06T09:41:49.325Z,5.22
2018-12-06T09:42:49.307Z,5.24
2018-12-06T09:43:49.293Z,5.33
2018-12-06T09:44:49.283Z,5.25
2018-12-06T09:45:49.301Z,5.25
2018-12-06T09:46:49.256Z,5.28
2018-12-06T09:47:49.263Z,5.35
2018-12-06T09:48:49.238Z,5.36
2018-12-06T09:49:49.235Z,5.42
2018-12-06T09:50:49.249Z,5.39
2018-12-06T09:51:49.209Z,5.40
2018-12-06T09:52:49.195Z,5.42
2018-12-06T09:53:49.191Z,5.42
2018-12-06T09:54:49.179Z,5.42
2018-12-06T09:55:49.188Z,5.40
2018-12-06T09:56:49.168Z,5.45
2018-12-06T09:57:49.140Z,5.39
2018-12-06T09:58:49.137Z,5.43
2018-12-06T09:59:49.146Z,5.45
2018-12-06T10:00:49.137Z,5.38
2018-12-06T10:01:49.100Z,5.45
2018-12-06T10:02:49.087Z,5.53
2018-12-06T10:03:49.094Z,5.53
2018-12-06T10:04:49.075Z,5.49
2018-12-06T10:05:49.076Z,5.49
2018-12-06T10:06:49.049Z,5.49
2018-12-06T10:07:49.093Z,5.46
2018-12-06T10:08:49.042Z,5.56
2018-12-06T10:09:49.015Z,5.54
2018-12-06T10:10:49.077Z,5.58
2018-12-06T10:11:48.997Z,5.54
2018-12-06T10:12:48.985Z,5.67
2018-12-06T10:13:48.981Z,5.61
2018-12-06T10:14:48.974Z,5.58
2018-12-06T10:15:48.998Z,5.56
2018-12-06T10:16:48.947Z,5.65
2018-12-06T10:17:48.929Z,5.57
2018-12-06T10:18:48.939Z,5.57
2018-12-06T10:19:48.906Z,5.56
2018-12-06T10:20:48.919Z,5.65
2018-12-06T10:21:48.885Z,5.56
2018-12-06T10:22:48.916Z,5.68
2018-12-06T10:23:48.862Z,5.54
2018-12-06T10:24:48.854Z,5.67
2018-12-06T10:25:48.867Z,5.57
2018-12-06T10:26:48.833Z,5.65
2018-12-06T10:27:48.868Z,5.68
2018-12-06T10:28:48.823Z,5.67
2018-12-06T10:29:48.801Z,5.58
2018-12-06T10:30:48.813Z,5.60
2018-12-06T10:31:48.791Z,5.64
2018-12-06T10:32:48.766Z,5.65
2018-12-06T10:33:48.763Z,5.61
2018-12-06T10:34:53.462Z,5.60
2018-12-06T10:35:48.776Z,5.63
2018-12-06T10:36:48.725Z,5.65
2018-12-06T10:37:48.721Z,5.67
2018-12-06T10:38:48.700Z,5.74
2018-12-06T10:39:48.698Z,5.71
2018-12-06T10:40:48.700Z,5.72
2018-12-06T10:41:48.689Z,5.78
2018-12-06T10:42:48.657Z,5.76
2018-12-06T10:43:48.650Z,5.72
2018-12-06T10:44:48.646Z,5.75
2018-12-06T10:45:48.638Z,5.81
2018-12-06T10:46:48.644Z,5.81
2018-12-06T10:47:48.610Z,5.78
2018-12-06T10:48:48.595Z,5.76
2018-12-06T10:49:48.593Z,5.82
2018-12-06T10:50:48.579Z,5.86
2018-12-06T10:51:48.600Z,5.83
2018-12-06T10:52:48.583Z,5.91
2018-12-06T10:53:48.541Z,5.86
2018-12-06T10:54:48.538Z,5.94
2018-12-06T10:55:48.530Z,5.91
2018-12-06T10:56:48.532Z,5.90
2018-12-06T10:57:48.520Z,6.00
2018-12-06T10:58:48.496Z,5.93
2018-12-06T10:59:48.481Z,5.94
2018-12-06T11:00:48.474Z,6.04
2018-12-06T11:01:48.480Z,5.93
2018-12-06T11:02:48.466Z,5.96
2018-12-06T11:03:48.475Z,6.03
2018-12-06T11:04:48.428Z,6.03
2018-12-06T11:05:48.420Z,6.09
2018-12-06T11:06:48.423Z,6.06
2018-12-06T11:07:48.407Z,6.08
2018-12-06T11:08:48.400Z,6.21
2018-12-06T11:09:48.378Z,6.22
2018-12-06T11:10:48.359Z,6.22
2018-12-06T11:11:48.392Z,6.27
2018-12-06T11:12:48.340Z,6.27
2018-12-06T11:13:48.334Z,6.14
2018-12-06T11:14:48.336Z,6.11
2018-12-06T11:15:48.338Z,6.27
2018-12-06T11:16:48.323Z,6.19
2018-12-06T11:17:48.292Z,6.25
2018-12-06T11:18:48.271Z,6.27
2018-12-06T11:19:48.271Z,6.25
2018-12-06T11:20:48.258Z,6.25
2018-12-06T11:21:48.279Z,6.28
2018-12-06T11:22:48.299Z,6.22
2018-12-06T11:23:48.245Z,6.30
2018-12-06T11:24:48.209Z,6.28
2018-12-06T11:25:48.209Z,6.37
2018-12-06T11:26:48.297Z,6.31
2018-12-06T11:27:49.088Z,6.31
2018-12-06T11:28:48.174Z,6.33
2018-12-06T11:29:48.158Z,6.34
2018-12-06T11:30:48.156Z,6.30
2018-12-06T11:31:48.166Z,6.33
2018-12-06T11:32:48.128Z,6.27
2018-12-06T11:33:48.119Z,6.31
2018-12-06T11:34:48.164Z,6.36
2018-12-06T11:35:48.134Z,6.30
2018-12-06T11:36:48.184Z,6.33
2018-12-06T11:37:48.083Z,6.37
2018-12-06T11:38:48.068Z,6.41
2018-12-06T11:39:48.063Z,6.31
2018-12-06T11:40:48.044Z,6.33
2018-12-06T11:41:48.062Z,6.30
2018-12-06T11:42:48.064Z,6.34
2018-12-06T11:43:48.012Z,6.31
2018-12-06T11:44:48.022Z,6.21
2018-12-06T11:45:47.998Z,6.27
2018-12-06T11:46:47.981Z,6.37
2018-12-06T11:47:48.004Z,6.34
2018-12-06T11:48:47.967Z,6.38
2018-12-06T11:49:47.951Z,6.34
2018-12-06T11:50:47.943Z,6.37
2018-12-06T11:51:47.943Z,6.33
2018-12-06T11:52:47.938Z,6.34
2018-12-06T11:53:47.905Z,6.51
2018-12-06T11:54:47.904Z,6.49
2018-12-06T11:55:47.892Z,6.51
2018-12-06T11:56:47.890Z,6.48
2018-12-06T11:57:47.905Z,6.48
2018-12-06T11:58:47.854Z,6.58
2018-12-06T11:59:47.858Z,6.52
2018-12-06T12:00:47.848Z,6.59
2018-12-06T12:01:47.822Z,6.61
2018-12-06T12:02:47.830Z,6.61
2018-12-06T12:03:47.817Z,6.64
2018-12-06T12:04:47.830Z,6.61
2018-12-06T12:05:47.792Z,6.55
2018-12-06T12:06:47.784Z,6.59
2018-12-06T12:07:47.799Z,6.54
2018-12-06T12:08:47.760Z,6.55
2018-12-06T12:09:47.875Z,6.55
2018-12-06T12:10:47.754Z,6.46
2018-12-06T12:11:47.727Z,6.48
2018-12-06T12:12:47.777Z,6.58
2018-12-06T12:13:47.705Z,6.59
2018-12-06T12:15:49.096Z,6.59
2018-12-06T12:16:48.193Z,6.64
2018-12-06T12:17:48.745Z,6.61
2018-12-06T12:18:47.767Z,6.56
2018-12-06T12:19:47.656Z,6.56
2018-12-06T12:20:47.675Z,6.64
2018-12-06T12:21:47.638Z,6.64
2018-12-06T12:22:47.665Z,6.61
2018-12-06T12:23:47.699Z,6.58
2018-12-06T12:24:47.584Z,6.76
2018-12-06T12:25:47.991Z,6.73
2018-12-06T12:26:47.811Z,6.77
2018-12-06T12:27:47.563Z,6.69
2018-12-06T12:28:47.610Z,6.70
2018-12-06T12:29:47.540Z,6.69
2018-12-06T12:30:47.522Z,6.71
2018-12-06T12:31:47.510Z,6.70
2018-12-06T12:32:47.496Z,6.69
2018-12-06T12:33:47.506Z,6.74
2018-12-06T12:34:47.472Z,6.64
2018-12-06T12:35:47.528Z,6.62
2018-12-06T12:36:47.450Z,6.69
2018-12-06T12:37:47.440Z,6.66
2018-12-06T12:38:47.464Z,6.70
2018-12-06T12:39:47.422Z,6.70
2018-12-06T12:40:47.416Z,6.74
2018-12-06T12:41:47.413Z,6.69
2018-12-06T12:42:47.387Z,6.66
2018-12-06T12:43:47.390Z,6.73
2018-12-06T12:44:47.366Z,6.71
2018-12-06T12:45:47.350Z,6.54
2018-12-06T12:46:47.349Z,6.55
2018-12-06T12:47:47.332Z,6.62
2018-12-06T12:48:47.344Z,6.67
2018-12-06T12:49:47.308Z,6.67
2018-12-06T12:50:47.313Z,6.61
2018-12-06T12:51:47.294Z,6.62
2018-12-06T12:52:47.282Z,6.56
2018-12-06T12:53:47.291Z,6.55
2018-12-06T12:54:47.257Z,6.70
2018-12-06T12:55:47.258Z,6.58
2018-12-06T12:56:47.240Z,6.62
2018-12-06T12:57:47.233Z,6.69
2018-12-06T12:58:47.253Z,6.73
2018-12-06T12:59:47.205Z,6.66
2018-12-06T13:00:47.198Z,6.70
2018-12-06T13:01:47.192Z,6.67
2018-12-06T13:02:47.177Z,6.70
2018-12-06T13:03:47.180Z,6.59
2018-12-06T13:04:47.150Z,6.67
2018-12-06T13:05:47.153Z,6.70
2018-12-06T13:06:47.138Z,6.76
2018-12-06T13:07:47.133Z,6.77
2018-12-06T13:08:47.120Z,6.74
2018-12-06T13:09:47.105Z,6.79
2018-12-06T13:10:47.191Z,6.79
2018-12-06T13:11:47.079Z,6.79
2018-12-06T13:12:47.069Z,6.70
2018-12-06T13:13:47.078Z,6.76
2018-12-06T13:14:47.046Z,6.71
2018-12-06T13:15:47.044Z,6.70
2018-12-06T13:16:47.031Z,6.67
2018-12-06T13:17:47.102Z,6.73
2018-12-06T13:18:47.031Z,6.76
2018-12-06T13:19:47.008Z,6.79